createdAt,value
2023-02-24T00:02:03.617Z,4.38
2023-02-24T00:04:36.090Z,4.07
2023-02-24T00:07:03.374Z,3.90
2023-02-24T00:09:33.457Z,4.45
2023-02-24T00:12:06.318Z,4.40
2023-02-24T00:14:38.228Z,4.82
2023-02-24T00:17:08.401Z,4.05
2023-02-24T00:19:36.736Z,4.43
2023-02-24T00:22:07.324Z,4.22
2023-02-24T00:24:35.771Z,4.28
2023-02-24T00:27:11.298Z,4.97
2023-02-24T00:29:40.257Z,4.80
2023-02-24T00:32:12.763Z,3.80
2023-02-24T00:34:40.790Z,4.18
2023-02-24T00:37:08.310Z,4.65
2023-02-24T00:39:36.634Z,4.13
2023-02-24T00:42:06.537Z,4.38
2023-02-24T00:44:40.884Z,4.13
2023-02-24T00:47:10.755Z,4.32
2023-02-24T00:49:42.911Z,4.22
2023-02-24T00:52:19.303Z,4.45
2023-02-24T00:54:49.131Z,4.68
2023-02-24T00:57:18.661Z,4.47
2023-02-24T00:59:51.397Z,4.70
2023-02-24T01:02:19.082Z,4.60
2023-02-24T01:04:46.543Z,4.72
2023-02-24T01:07:14.049Z,4.85
2023-02-24T01:09:42.141Z,5.22
2023-02-24T01:12:38.242Z,5.03
2023-02-24T01:15:09.290Z,4.82
2023-02-24T01:17:37.925Z,4.28
2023-02-24T01:20:17.150Z,4.57
2023-02-24T01:22:53.664Z,4.95
2023-02-24T01:25:20.980Z,4.38
2023-02-24T01:27:48.741Z,4.55
2023-02-24T01:30:16.582Z,4.90
2023-02-24T01:32:44.944Z,4.30
2023-02-24T01:35:12.312Z,4.22
2023-02-24T01:37:39.806Z,4.03
2023-02-24T01:40:11.987Z,4.50
2023-02-24T01:42:42.216Z,4.15
2023-02-24T01:45:19.471Z,5.10
2023-02-24T01:47:47.556Z,4.68
2023-02-24T01:50:21.774Z,4.70
2023-02-24T01:52:56.220Z,4.57
2023-02-24T01:55:37.949Z,4.13
2023-02-24T01:58:12.844Z,4.53
2023-02-24T02:00:45.687Z,3.83
2023-02-24T02:03:41.717Z,3.78
2023-02-24T02:06:13.630Z,4.03
2023-02-24T02:08:42.818Z,4.57
2023-02-24T02:11:14.870Z,4.03
2023-02-24T02:13:45.288Z,3.95
2023-02-24T02:16:44.632Z,3.55
2023-02-24T02:19:34.364Z,3.58
2023-02-24T02:22:45.455Z,3.88
2023-02-24T02:25:18.433Z,3.63
2023-02-24T02:28:25.645Z,3.55
2023-02-24T02:31:19.973Z,2.90
2023-02-24T02:34:17.161Z,2.92
2023-02-24T02:36:58.694Z,3.05
2023-02-24T02:39:52.784Z,3.13
2023-02-24T02:42:28.133Z,2.72
2023-02-24T02:45:17.836Z,3.08
2023-02-24T02:48:03.296Z,3.28
2023-02-24T02:50:53.269Z,3.30
2023-02-24T02:53:49.491Z,3.42
2023-02-24T02:56:24.116Z,2.97
2023-02-24T02:58:54.826Z,3.30
2023-02-24T03:01:31.011Z,3.10
2023-02-24T03:04:04.847Z,2.92
2023-02-24T03:06:47.044Z,3.33
2023-02-24T03:12:20.412Z,3.20
2023-02-24T03:14:54.007Z,3.20
2023-02-24T03:17:25.913Z,3.38
2023-02-24T03:20:12.384Z,3.55
2023-02-24T03:23:02.624Z,3.88
2023-02-24T03:25:46.856Z,3.05
2023-02-24T03:28:22.959Z,3.42
2023-02-24T03:31:28.633Z,3.50
2023-02-24T03:34:14.496Z,3.53
2023-02-24T03:36:43.239Z,3.17
2023-02-24T03:39:12.574Z,3.50
2023-02-24T03:42:12.085Z,3.50
2023-02-24T03:44:39.288Z,3.55
2023-02-24T03:47:09.642Z,3.42
2023-02-24T03:49:38.541Z,3.60
2023-02-24T03:52:21.557Z,3.78
2023-02-24T03:55:06.492Z,3.90
2023-02-24T03:58:13.284Z,3.85
2023-02-24T04:01:21.932Z,3.70
2023-02-24T04:04:06.209Z,3.63
2023-02-24T04:06:56.207Z,3.65
2023-02-24T04:09:57.259Z,3.55
2023-02-24T04:12:40.347Z,3.30
2023-02-24T04:15:22.753Z,3.50
2023-02-24T04:17:57.682Z,3.08
2023-02-24T04:20:31.075Z,4.18
2023-02-24T04:23:16.367Z,4.13
2023-02-24T04:25:48.111Z,3.65
2023-02-24T04:30:51.659Z,3.33
2023-02-24T04:33:20.597Z,3.80
2023-02-24T04:35:50.816Z,3.83
2023-02-24T04:38:18.970Z,3.70
2023-02-24T04:40:46.107Z,4.15
2023-02-24T04:43:13.290Z,3.78
2023-02-24T04:45:40.489Z,3.42
2023-02-24T04:48:13.008Z,3.70
2023-02-24T04:50:43.339Z,3.67
2023-02-24T04:53:16.621Z,4.13
2023-02-24T04:55:49.079Z,3.80
2023-02-24T04:58:23.611Z,3.45
2023-02-24T05:00:53.025Z,3.47
2023-02-24T05:03:22.883Z,3.33
2023-02-24T05:06:00.479Z,4.40
2023-02-24T05:08:30.080Z,4.03
2023-02-24T05:10:58.820Z,3.58
2023-02-24T05:13:31.945Z,2.92
2023-02-24T05:16:12.862Z,3.42
2023-02-24T05:18:40.473Z,3.33
2023-02-24T05:21:29.639Z,4.55
2023-02-24T05:23:59.269Z,7.40
2023-02-24T05:26:27.258Z,7.57
2023-02-24T05:28:56.788Z,6.30
2023-02-24T05:31:27.055Z,5.43
2023-02-24T05:33:58.592Z,5.13
2023-02-24T05:36:30.055Z,4.70
2023-02-24T05:39:19.446Z,4.43
2023-02-24T05:41:49.664Z,4.20
2023-02-24T05:44:26.182Z,4.00
2023-02-24T05:46:59.244Z,4.05
2023-02-24T05:49:33.063Z,4.15
2023-02-24T05:52:08.202Z,4.03
2023-02-24T05:54:43.197Z,6.07
2023-02-24T05:57:14.077Z,6.78
2023-02-24T05:59:42.206Z,6.40
2023-02-24T06:02:13.970Z,5.80
2023-02-24T06:04:51.170Z,5.32
2023-02-24T06:07:25.190Z,5.07
2023-02-24T06:09:57.115Z,4.50
2023-02-24T06:12:34.662Z,4.63
2023-02-24T06:15:08.048Z,4.28
2023-02-24T06:17:35.654Z,4.28
2023-02-24T06:20:13.171Z,4.03
2023-02-24T06:22:42.657Z,3.50
2023-02-24T06:25:12.073Z,3.83
2023-02-24T06:27:39.226Z,4.15
2023-02-24T06:30:10.695Z,4.30
2023-02-24T06:32:38.140Z,3.83
2023-02-24T06:35:06.197Z,4.13
2023-02-24T06:37:33.356Z,3.30
2023-02-24T06:40:00.666Z,3.95
2023-02-24T06:42:27.900Z,4.05
2023-02-24T06:44:54.894Z,4.07
2023-02-24T06:47:22.865Z,4.45
2023-02-24T06:49:50.013Z,4.47
2023-02-24T06:52:19.170Z,3.95
2023-02-24T06:54:49.133Z,4.15
2023-02-24T06:57:16.263Z,3.65
2023-02-24T06:59:43.353Z,4.18
2023-02-24T07:02:11.352Z,4.15
2023-02-24T07:04:44.044Z,4.18
2023-02-24T07:07:14.556Z,4.05
2023-02-24T07:09:42.710Z,4.03
2023-02-24T07:12:12.769Z,4.03
2023-02-24T07:14:40.677Z,4.28
2023-02-24T07:17:08.919Z,4.10
2023-02-24T07:19:36.832Z,4.13
2023-02-24T07:22:04.413Z,4.32
2023-02-24T07:24:36.804Z,4.57
2023-02-24T07:27:13.091Z,4.85
2023-02-24T07:29:40.192Z,4.43
2023-02-24T07:32:10.694Z,3.72
2023-02-24T07:34:41.044Z,4.10
2023-02-24T07:37:09.696Z,3.47
2023-02-24T07:39:39.491Z,3.55
2023-02-24T07:42:09.962Z,3.30
2023-02-24T07:44:39.013Z,3.45
2023-02-24T07:47:08.479Z,3.33
2023-02-24T07:49:36.298Z,3.30
2023-02-24T07:52:04.024Z,3.40
2023-02-24T07:54:31.202Z,4.00
2023-02-24T07:56:59.881Z,3.58
2023-02-24T07:59:33.987Z,4.03
2023-02-24T08:02:04.925Z,3.75
2023-02-24T08:04:33.912Z,4.22
2023-02-24T08:07:03.658Z,3.80
2023-02-24T08:09:46.932Z,4.10
2023-02-24T08:12:22.085Z,3.88
2023-02-24T08:14:53.140Z,4.43
2023-02-24T08:17:26.692Z,4.83
2023-02-24T08:20:16.112Z,4.57
2023-02-24T08:22:47.072Z,4.28
2023-02-24T08:25:19.145Z,4.30
2023-02-24T08:28:07.341Z,4.57
2023-02-24T08:30:40.783Z,4.22
2023-02-24T08:33:11.966Z,4.30
2023-02-24T08:35:45.102Z,4.65
2023-02-24T08:38:20.836Z,4.50
2023-02-24T08:40:52.462Z,4.45
2023-02-24T08:43:38.647Z,4.75
2023-02-24T08:46:18.382Z,4.63
2023-02-24T08:48:55.756Z,5.13
2023-02-24T08:51:29.022Z,5.22
2023-02-24T08:54:03.832Z,4.70
2023-02-24T08:56:35.053Z,4.55
2023-02-24T08:59:06.028Z,4.47
2023-02-24T09:02:03.719Z,4.35
2023-02-24T09:04:34.401Z,4.53
2023-02-24T09:07:11.589Z,5.00
2023-02-24T09:09:42.452Z,4.65
2023-02-24T09:12:22.218Z,5.55
2023-02-24T09:15:01.225Z,5.30
2023-02-24T09:17:46.326Z,5.13
2023-02-24T09:20:27.253Z,5.05
2023-02-24T09:23:07.503Z,5.30
2023-02-24T09:25:41.007Z,4.90
2023-02-24T09:28:21.086Z,5.18
2023-02-24T09:30:58.854Z,4.90
2023-02-24T09:33:41.498Z,4.65
2023-02-24T09:36:13.207Z,4.50
2023-02-24T09:39:00.186Z,5.03
2023-02-24T09:41:54.421Z,4.93
2023-02-24T09:44:38.622Z,4.80
2023-02-24T09:47:37.127Z,5.00
2023-02-24T09:50:46.795Z,5.07
2023-02-24T09:53:17.810Z,4.80
2023-02-24T09:56:00.616Z,5.45
2023-02-24T09:58:49.490Z,5.43
2023-02-24T10:01:47.808Z,4.53
2023-02-24T10:05:07.471Z,5.10
2023-02-24T10:07:40.686Z,4.88
2023-02-24T10:10:20.686Z,5.00
2023-02-24T10:12:52.967Z,5.00
2023-02-24T10:15:49.157Z,5.68
2023-02-24T10:18:43.843Z,4.95
2023-02-24T10:21:18.648Z,12.13
2023-02-24T10:24:29.477Z,9.73
2023-02-24T10:27:08.778Z,6.57
2023-02-24T10:30:28.130Z,5.72
2023-02-24T10:32:59.119Z,7.00
2023-02-24T10:35:33.922Z,7.10
2023-02-24T10:38:05.668Z,7.68
2023-02-24T10:40:47.082Z,7.30
2023-02-24T10:43:25.428Z,5.63
2023-02-24T10:46:06.188Z,5.60
2023-02-24T10:48:41.632Z,5.53
2023-02-24T10:51:20.565Z,5.28
2023-02-24T10:54:10.140Z,5.43
2023-02-24T10:56:45.017Z,5.18
2023-02-24T10:59:25.028Z,5.20
2023-02-24T11:02:06.978Z,4.38
2023-02-24T11:05:04.308Z,5.13
2023-02-24T11:07:53.735Z,5.32
2023-02-24T11:10:32.595Z,5.35
2023-02-24T11:13:20.126Z,5.18
2023-02-24T11:16:11.509Z,5.70
2023-02-24T11:18:40.146Z,5.63
2023-02-24T11:21:12.364Z,5.25
2023-02-24T11:23:47.466Z,5.22
2023-02-24T11:26:26.751Z,4.90
2023-02-24T11:29:18.017Z,4.95
2023-02-24T11:32:12.672Z,4.83
2023-02-24T11:35:11.705Z,3.97
2023-02-24T11:37:45.432Z,4.57
2023-02-24T11:40:24.988Z,4.95
2023-02-24T11:43:07.487Z,4.65
2023-02-24T11:45:43.991Z,4.75
2023-02-24T11:48:21.980Z,4.82
2023-02-24T11:51:15.494Z,5.10
2023-02-24T11:53:57.385Z,4.72
2023-02-24T11:56:40.185Z,4.80
2023-02-24T11:59:36.509Z,5.03
2023-02-24T12:02:39.873Z,5.60
2023-02-24T12:05:25.385Z,4.65
2023-02-24T12:07:57.552Z,4.57
2023-02-24T12:10:30.953Z,4.50
2023-02-24T12:13:31.617Z,4.80
2023-02-24T12:16:10.426Z,4.65
2023-02-24T12:18:59.425Z,5.00
2023-02-24T12:21:32.085Z,4.85
2023-02-24T12:23:59.586Z,5.05
2023-02-24T12:26:28.936Z,4.38
2023-02-24T12:29:20.659Z,4.55
2023-02-24T12:32:01.882Z,4.78
2023-02-24T12:34:47.188Z,4.57
2023-02-24T12:37:40.980Z,4.68
2023-02-24T12:40:31.505Z,4.88
2023-02-24T12:43:25.522Z,4.13
2023-02-24T12:46:05.384Z,4.65
2023-02-24T12:49:26.000Z,4.53
2023-02-24T12:52:34.312Z,4.10
2023-02-24T12:56:02.787Z,4.43
2023-02-24T12:58:36.634Z,4.55
2023-02-24T13:01:24.909Z,4.45
2023-02-24T13:04:20.108Z,4.30
2023-02-24T13:07:09.946Z,4.68
2023-02-24T13:10:21.440Z,4.38
2023-02-24T13:13:00.453Z,4.32
2023-02-24T13:15:31.618Z,4.28
2023-02-24T13:17:59.593Z,3.90
2023-02-24T13:20:37.460Z,4.35
2023-02-24T13:23:22.216Z,4.57
2023-02-24T13:25:55.089Z,4.55
2023-02-24T13:28:33.309Z,4.38
2023-02-24T13:31:08.243Z,4.38
2023-02-24T13:33:39.160Z,4.78
2023-02-24T13:36:25.693Z,4.45
2023-02-24T13:39:08.058Z,4.28
2023-02-24T13:41:37.596Z,4.47
2023-02-24T13:44:24.515Z,4.60
2023-02-24T13:47:16.806Z,4.68
2023-02-24T13:53:11.118Z,4.07
2023-02-24T13:55:49.337Z,4.35
2023-02-24T13:58:46.223Z,4.47
2023-02-24T14:01:24.428Z,5.00
2023-02-24T14:04:31.008Z,4.03
2023-02-24T14:07:03.382Z,4.65
2023-02-24T14:09:46.057Z,4.65
2023-02-24T14:12:21.818Z,4.97
2023-02-24T14:14:50.602Z,4.50
2023-02-24T14:17:30.500Z,4.53
2023-02-24T14:20:14.435Z,4.00
2023-02-24T14:22:55.380Z,4.75
2023-02-24T14:25:35.238Z,3.90
2023-02-24T14:28:02.604Z,4.40
2023-02-24T14:30:38.797Z,4.95
2023-02-24T14:33:08.727Z,4.68
2023-02-24T14:35:48.295Z,5.07
2023-02-24T14:38:38.812Z,4.78
2023-02-24T14:41:19.696Z,4.32
2023-02-24T14:43:47.003Z,4.22
2023-02-24T14:46:14.164Z,4.28
2023-02-24T14:48:41.346Z,4.43
2023-02-24T14:51:23.887Z,4.60
2023-02-24T14:53:55.382Z,4.43
2023-02-24T14:56:31.186Z,4.45
2023-02-24T14:59:05.160Z,4.30
2023-02-24T15:01:44.474Z,4.38
2023-02-24T15:04:22.867Z,4.47
2023-02-24T15:06:50.027Z,4.38
2023-02-24T15:09:22.458Z,4.85
2023-02-24T15:11:53.301Z,5.22
2023-02-24T15:14:30.745Z,4.50
2023-02-24T15:17:02.052Z,4.28
2023-02-24T15:19:44.213Z,4.45
2023-02-24T15:22:39.476Z,4.70
2023-02-24T15:25:23.989Z,3.90
2023-02-24T15:27:59.867Z,4.32
2023-02-24T15:30:54.904Z,4.22
2023-02-24T15:33:25.344Z,5.13
2023-02-24T15:35:56.847Z,4.32
2023-02-24T15:38:35.976Z,4.70
2023-02-24T15:41:06.526Z,4.63
2023-02-24T15:43:50.546Z,4.80
2023-02-24T15:46:32.771Z,4.75
2023-02-24T15:49:03.977Z,4.65
2023-02-24T15:51:47.086Z,5.13
2023-02-24T15:54:36.571Z,5.53
2023-02-24T15:57:05.601Z,5.03
2023-02-24T15:59:32.740Z,5.80
2023-02-24T16:01:59.788Z,5.28
2023-02-24T16:04:27.911Z,5.05
2023-02-24T16:06:57.467Z,5.13
2023-02-24T16:09:32.397Z,4.80
2023-02-24T16:12:00.649Z,5.65
2023-02-24T16:14:27.785Z,4.50
2023-02-24T16:16:54.912Z,5.00
2023-02-24T16:19:22.275Z,4.82
2023-02-24T16:21:49.506Z,5.00
2023-02-24T16:24:16.666Z,6.10
2023-02-24T16:26:43.792Z,5.82
2023-02-24T16:29:15.483Z,5.93
2023-02-24T16:31:43.036Z,5.10
2023-02-24T16:34:15.963Z,5.32
2023-02-24T16:36:44.141Z,5.38
2023-02-24T16:39:14.285Z,5.13
2023-02-24T16:41:41.431Z,5.38
2023-02-24T16:44:09.440Z,4.93
2023-02-24T16:46:41.520Z,5.95
2023-02-24T16:49:13.798Z,5.05
2023-02-24T16:51:41.120Z,4.53
2023-02-24T16:54:08.811Z,4.55
2023-02-24T16:56:36.056Z,4.50
2023-02-24T16:59:03.121Z,4.53
2023-02-24T17:01:30.419Z,5.45
2023-02-24T17:03:57.628Z,5.50
2023-02-24T17:06:26.447Z,5.60
2023-02-24T17:08:53.938Z,9.85
2023-02-24T17:11:23.582Z,10.55
2023-02-24T17:13:50.714Z,7.28
2023-02-24T17:16:17.988Z,6.32
2023-02-24T17:18:45.132Z,4.53
2023-02-24T17:21:14.533Z,4.13
2023-02-24T17:23:44.913Z,3.75
2023-02-24T17:26:16.021Z,3.17
2023-02-24T17:28:43.680Z,2.75
2023-02-24T17:31:10.873Z,3.42
2023-02-24T17:33:38.250Z,3.17
2023-02-24T17:36:05.548Z,3.42
2023-02-24T17:38:32.629Z,3.05
2023-02-24T17:41:02.193Z,3.38
2023-02-24T17:43:29.703Z,3.60
2023-02-24T17:45:56.829Z,3.83
2023-02-24T17:48:23.987Z,3.50
2023-02-24T17:50:52.134Z,3.60
2023-02-24T17:53:19.226Z,3.00
2023-02-24T17:56:01.518Z,3.00
2023-02-24T17:58:30.216Z,3.13
2023-02-24T18:00:57.436Z,3.45
2023-02-24T18:03:24.951Z,3.13
2023-02-24T18:06:08.714Z,2.80
2023-02-24T18:08:37.548Z,3.03
2023-02-24T18:11:06.702Z,3.08
2023-02-24T18:13:34.392Z,2.95
2023-02-24T18:16:01.876Z,2.70
2023-02-24T18:18:30.415Z,3.03
2023-02-24T18:21:02.870Z,2.78
2023-02-24T18:23:30.551Z,2.38
2023-02-24T18:26:04.245Z,2.10
2023-02-24T18:28:32.732Z,2.38
2023-02-24T18:31:01.488Z,2.00
2023-02-24T18:33:29.482Z,2.08
2023-02-24T18:36:00.625Z,2.13
2023-02-24T18:38:30.468Z,2.30
2023-02-24T18:41:09.374Z,2.30
2023-02-24T18:43:37.413Z,2.55
2023-02-24T18:46:09.073Z,2.03
2023-02-24T18:48:36.831Z,2.08
2023-02-24T18:51:05.029Z,1.95
2023-02-24T18:53:37.045Z,2.47
2023-02-24T18:56:33.237Z,2.80
2023-02-24T18:59:02.079Z,2.38
2023-02-24T19:01:33.123Z,2.75
2023-02-24T19:04:01.567Z,2.65
2023-02-24T19:06:31.229Z,2.20
2023-02-24T19:09:06.924Z,2.58
2023-02-24T19:11:34.497Z,2.30
2023-02-24T19:14:02.521Z,2.38
2023-02-24T19:16:32.094Z,2.10
2023-02-24T19:19:00.161Z,2.58
2023-02-24T19:21:33.040Z,2.85
2023-02-24T19:24:10.269Z,2.78
2023-02-24T19:26:40.331Z,2.90
2023-02-24T19:29:07.613Z,2.38
2023-02-24T19:31:35.424Z,2.40
2023-02-24T19:34:07.525Z,2.45
2023-02-24T19:36:37.915Z,2.30
2023-02-24T19:39:08.850Z,2.50
2023-02-24T19:41:36.947Z,2.47
2023-02-24T19:44:04.127Z,2.50
2023-02-24T19:46:33.192Z,2.95
2023-02-24T19:49:01.195Z,3.53
2023-02-24T19:51:28.575Z,3.25
2023-02-24T19:53:59.696Z,2.80
2023-02-24T19:56:30.323Z,2.93
2023-02-24T19:58:59.852Z,2.85
2023-02-24T20:01:28.511Z,2.53
2023-02-24T20:04:02.737Z,2.40
2023-02-24T20:06:35.912Z,2.17
2023-02-24T20:09:11.392Z,2.20
2023-02-24T20:11:39.840Z,1.65
2023-02-24T20:14:07.996Z,2.15
2023-02-24T20:16:37.786Z,2.25
2023-02-24T20:19:06.900Z,1.92
2023-02-24T20:21:34.290Z,2.00
2023-02-24T20:24:03.801Z,1.83
2023-02-24T20:26:31.329Z,2.42
2023-02-24T20:29:00.519Z,1.73
2023-02-24T20:31:28.242Z,2.40
2023-02-24T20:33:56.520Z,2.58
2023-02-24T20:36:26.938Z,2.88
2023-02-24T20:38:54.799Z,1.98
2023-02-24T20:41:22.576Z,1.70
2023-02-24T20:43:49.925Z,1.50
2023-02-24T20:46:30.267Z,1.30
2023-02-24T20:49:00.734Z,1.58
2023-02-24T20:51:30.534Z,1.38
2023-02-24T20:53:58.853Z,1.30
2023-02-24T20:56:28.835Z,1.35
2023-02-24T20:59:18.261Z,1.20
2023-02-24T21:01:47.805Z,1.27
2023-02-24T21:04:18.432Z,1.48
2023-02-24T21:06:47.924Z,1.30
2023-02-24T21:09:16.242Z,1.50
2023-02-24T21:11:43.490Z,1.15
2023-02-24T21:14:15.912Z,1.40
2023-02-24T21:16:43.299Z,1.30
2023-02-24T21:19:10.360Z,1.65
2023-02-24T21:21:37.447Z,1.60
2023-02-24T21:24:05.459Z,1.88
2023-02-24T21:26:32.619Z,1.73
2023-02-24T21:28:59.760Z,1.75
2023-02-24T21:31:34.820Z,1.50
2023-02-24T21:34:01.984Z,1.45
2023-02-24T21:36:31.285Z,1.42
2023-02-24T21:38:59.268Z,2.00
2023-02-24T21:41:28.537Z,1.65
2023-02-24T21:43:56.060Z,1.58
2023-02-24T21:46:28.369Z,2.00
2023-02-24T21:48:58.019Z,2.10
2023-02-24T21:51:27.384Z,1.90
2023-02-24T21:53:55.338Z,2.13
2023-02-24T21:56:29.876Z,1.90
2023-02-24T21:59:03.566Z,2.20
2023-02-24T22:01:41.208Z,2.10
2023-02-24T22:04:13.587Z,2.80
2023-02-24T22:06:42.230Z,2.85
2023-02-24T22:09:11.050Z,3.28
2023-02-24T22:11:41.373Z,3.28
2023-02-24T22:14:14.353Z,3.10
2023-02-24T22:16:42.894Z,3.10
2023-02-24T22:19:10.946Z,3.67
2023-02-24T22:21:41.480Z,3.38
2023-02-24T22:24:13.689Z,3.42
2023-02-24T22:26:41.489Z,3.33
2023-02-24T22:29:08.912Z,3.17
2023-02-24T22:31:39.094Z,3.38
2023-02-24T22:34:08.919Z,2.97
2023-02-24T22:36:37.947Z,3.20
2023-02-24T22:39:06.748Z,2.88
2023-02-24T22:41:35.902Z,2.65
2023-02-24T22:44:05.496Z,3.25
2023-02-24T22:46:37.024Z,2.45
2023-02-24T22:49:05.144Z,2.65
2023-02-24T22:51:32.307Z,2.50
2023-02-24T22:53:59.371Z,2.75
2023-02-24T22:56:29.162Z,2.65
2023-02-24T22:58:57.094Z,2.78
2023-02-24T23:01:30.687Z,3.10
2023-02-24T23:04:03.179Z,3.30
2023-02-24T23:06:31.172Z,3.30
2023-02-24T23:09:00.025Z,3.55
2023-02-24T23:11:34.482Z,3.03
2023-02-24T23:14:06.240Z,4.13
2023-02-24T23:19:16.397Z,7.68
2023-02-24T23:21:52.788Z,7.75
2023-02-24T23:24:21.806Z,7.63
2023-02-24T23:26:54.084Z,7.05
2023-02-24T23:29:23.384Z,6.63
2023-02-24T23:31:52.453Z,6.82
2023-02-24T23:34:19.788Z,7.20
2023-02-24T23:36:48.157Z,6.03
2023-02-24T23:39:21.514Z,5.70
2023-02-24T23:41:49.522Z,6.32
2023-02-24T23:44:16.593Z,5.55
2023-02-24T23:46:43.991Z,5.45
2023-02-24T23:49:11.597Z,5.20
2023-02-24T23:51:48.056Z,4.57
2023-02-24T23:54:20.427Z,5.88
2023-02-24T23:59:15.300Z,5.80
